createdAt,value
2018-09-17T00:00:23.018Z,100453.06
2018-09-17T00:00:58.187Z,100456.59
2018-09-17T00:01:33.411Z,100449.34
2018-09-17T00:02:08.547Z,100450.53
2018-09-17T00:02:43.854Z,100446.45
2018-09-17T00:03:19.137Z,100452.90
2018-09-17T00:03:54.393Z,100456.36
2018-09-17T00:04:29.560Z,100454.59
2018-09-17T00:05:05.011Z,100450.59
2018-09-17T00:05:40.179Z,100453.28
2018-09-17T00:06:15.478Z,100448.79
2018-09-17T00:06:51.407Z,100450.29
2018-09-17T00:07:26.575Z,100447.98
2018-09-17T00:08:01.861Z,100451.05
2018-09-17T00:08:37.049Z,100451.59
2018-09-17T00:09:13.765Z,100450.67
2018-09-17T00:09:49.281Z,100451.52
2018-09-17T00:10:24.474Z,100455.97
2018-09-17T00:10:59.638Z,100454.13
2018-09-17T00:11:34.787Z,100450.67
2018-09-17T00:12:09.963Z,100454.20
2018-09-17T00:12:45.317Z,100451.75
2018-09-17T00:13:20.761Z,100451.67
2018-09-17T00:13:55.968Z,100451.84
2018-09-17T00:14:31.127Z,100450.91
2018-09-17T00:15:07.080Z,100451.84
2018-09-17T00:15:42.957Z,100456.52
2018-09-17T00:16:18.847Z,100448.77
2018-09-17T00:16:54.018Z,100450.64
2018-09-17T00:17:29.163Z,100453.33
2018-09-17T00:18:04.356Z,100450.80
2018-09-17T00:18:39.541Z,100443.81
2018-09-17T00:19:15.013Z,100451.48
2018-09-17T00:19:50.310Z,100448.77
2018-09-17T00:20:25.478Z,100442.76
2018-09-17T00:21:00.697Z,100441.80
2018-09-17T00:21:35.857Z,100440.95
2018-09-17T00:22:11.037Z,100439.47
2018-09-17T00:22:46.601Z,100440.28
2018-09-17T00:23:21.986Z,100443.66
2018-09-17T00:23:57.325Z,100436.31
2018-09-17T00:24:32.463Z,100441.31
2018-09-17T00:25:07.718Z,100444.77
2018-09-17T00:25:43.014Z,100437.56
2018-09-17T00:26:18.288Z,100435.50
2018-09-17T00:26:53.459Z,100437.42
2018-09-17T00:27:28.665Z,100440.03
2018-09-17T00:28:03.854Z,100436.39
2018-09-17T00:28:39.197Z,100441.98
2018-09-17T00:29:14.849Z,100445.59
2018-09-17T00:29:50.096Z,100445.90
2018-09-17T00:30:25.318Z,100442.56
2018-09-17T00:31:00.519Z,100444.09
2018-09-17T00:31:35.698Z,100446.34
2018-09-17T00:32:10.991Z,100442.89
2018-09-17T00:32:47.054Z,100440.33
2018-09-17T00:33:22.643Z,100441.72
2018-09-17T00:33:57.987Z,100438.52
2018-09-17T00:34:33.159Z,100440.98
2018-09-17T00:35:08.490Z,100439.87
2018-09-17T00:35:44.183Z,100440.71
2018-09-17T00:36:19.646Z,100438.27
2018-09-17T00:36:54.844Z,100443.78
2018-09-17T00:37:30.021Z,100436.95
2018-09-17T00:38:05.244Z,100439.48
2018-09-17T00:38:40.535Z,100436.69
2018-09-17T00:39:16.191Z,100440.77
2018-09-17T00:39:51.763Z,100439.45
2018-09-17T00:40:26.958Z,100438.61
2018-09-17T00:41:02.129Z,100440.92
2018-09-17T00:41:37.296Z,100433.90
2018-09-17T00:42:12.997Z,100435.28
2018-09-17T00:42:51.423Z,100436.97
2018-09-17T00:43:26.854Z,100437.61
2018-09-17T00:44:02.031Z,100433.86
2018-09-17T00:44:37.202Z,100433.86
2018-09-17T00:45:12.587Z,100430.94
2018-09-17T00:45:48.054Z,100432.36
2018-09-17T00:46:23.262Z,100435.51
2018-09-17T00:46:57.970Z,100436.43
2018-09-17T00:47:33.141Z,100432.52
2018-09-17T00:48:08.334Z,100439.23
2018-09-17T00:48:43.994Z,100437.69
2018-09-17T00:49:19.513Z,100437.15
2018-09-17T00:49:54.698Z,100435.73
2018-09-17T00:50:29.873Z,100429.97
2018-09-17T00:51:05.810Z,100436.95
2018-09-17T00:51:41.036Z,100433.05
2018-09-17T00:52:16.214Z,100429.81
2018-09-17T00:52:51.390Z,100432.72
2018-09-17T00:53:26.815Z,100439.98
2018-09-17T00:54:02.190Z,100435.50
2018-09-17T00:54:37.721Z,100438.34
2018-09-17T00:55:12.943Z,100436.30
2018-09-17T00:55:48.333Z,100437.23
2018-09-17T00:56:23.545Z,100434.39
2018-09-17T00:56:58.693Z,100436.63
2018-09-17T00:57:33.861Z,100437.08
2018-09-17T00:58:09.035Z,100437.47
2018-09-17T00:58:44.307Z,100439.00
2018-09-17T00:59:19.698Z,100432.01
2018-09-17T00:59:54.905Z,100433.09
2018-09-17T01:00:30.126Z,100432.93
2018-09-17T01:01:05.318Z,100432.81
2018-09-17T01:01:40.484Z,100432.13
2018-09-17T01:02:16.368Z,100430.06
2018-09-17T01:02:51.814Z,100428.18
2018-09-17T01:03:26.970Z,100435.39
2018-09-17T01:04:02.130Z,100429.68
2018-09-17T01:04:37.290Z,100429.87
2018-09-17T01:05:12.547Z,100432.40
2018-09-17T01:05:47.982Z,100430.98
2018-09-17T01:06:23.262Z,100432.29
2018-09-17T01:06:58.481Z,100428.30
2018-09-17T01:07:33.654Z,100431.37
2018-09-17T01:08:08.826Z,100435.09
2018-09-17T01:08:44.649Z,100433.94
2018-09-17T01:09:25.368Z,100430.95
2018-09-17T01:10:00.530Z,100433.82
2018-09-17T01:10:35.715Z,100430.83
2018-09-17T01:11:10.870Z,100434.97
2018-09-17T01:11:46.609Z,100434.59
2018-09-17T01:12:21.837Z,100432.05
2018-09-17T01:12:57.010Z,100435.52
2018-09-17T01:13:32.170Z,100437.73
2018-09-17T01:14:07.367Z,100431.38
2018-09-17T01:14:42.695Z,100439.04
2018-09-17T01:15:18.111Z,100434.20
2018-09-17T01:15:53.310Z,100433.05
2018-09-17T01:16:28.485Z,100437.35
2018-09-17T01:17:03.686Z,100433.13
2018-09-17T01:17:39.060Z,100437.54
2018-09-17T01:18:14.608Z,100436.59
2018-09-17T01:18:50.135Z,100438.66
2018-09-17T01:19:25.316Z,100437.20
2018-09-17T01:20:00.514Z,100435.05
2018-09-17T01:20:35.690Z,100431.22
2018-09-17T01:21:10.860Z,100435.20
2018-09-17T01:21:46.328Z,100437.62
2018-09-17T01:22:21.683Z,100434.31
2018-09-17T01:22:56.870Z,100431.25
2018-09-17T01:23:32.044Z,100437.05
2018-09-17T01:24:07.724Z,100434.93
2018-09-17T01:24:42.931Z,100434.09
2018-09-17T01:25:18.642Z,100435.39
2018-09-17T01:25:53.819Z,100426.03
2018-09-17T01:26:29.006Z,100428.11
2018-09-17T01:27:04.178Z,100423.73
2018-09-17T01:27:39.397Z,100432.86
2018-09-17T01:28:15.406Z,100427.27
2018-09-17T01:28:51.125Z,100432.09
2018-09-17T01:29:28.510Z,100427.27
2018-09-17T01:30:03.778Z,100429.02
2018-09-17T01:30:39.071Z,100432.86
2018-09-17T01:31:17.671Z,100427.56
2018-09-17T01:31:53.304Z,100433.13
2018-09-17T01:32:28.487Z,100432.48
2018-09-17T01:33:03.858Z,100430.87
2018-09-17T01:33:39.141Z,100430.94
2018-09-17T01:34:14.931Z,100432.63
2018-09-17T01:34:55.535Z,100432.25
2018-09-17T01:35:30.779Z,100428.52
2018-09-17T01:36:06.039Z,100428.52
2018-09-17T01:36:41.201Z,100426.91
2018-09-17T01:37:20.220Z,100425.69
2018-09-17T01:37:55.398Z,100430.63
2018-09-17T01:38:30.625Z,100418.51
2018-09-17T01:39:07.790Z,100426.25
2018-09-17T01:39:47.276Z,100427.17
2018-09-17T01:40:22.733Z,100424.26
2018-09-17T01:40:57.942Z,100422.11
2018-09-17T01:41:33.105Z,100423.49
2018-09-17T01:42:08.291Z,100423.11
2018-09-17T01:42:43.682Z,100432.73
2018-09-17T01:43:23.119Z,100421.53
2018-09-17T01:43:58.353Z,100423.75
2018-09-17T01:44:33.569Z,100423.91
2018-09-17T01:45:09.040Z,100430.34
2018-09-17T01:45:46.347Z,100431.19
2018-09-17T01:46:27.661Z,100433.72
2018-09-17T01:47:05.570Z,100426.52
2018-09-17T01:47:40.774Z,100436.33
2018-09-17T01:48:21.160Z,100435.10
2018-09-17T01:49:00.646Z,100439.47
2018-09-17T01:49:38.280Z,100437.25
2018-09-17T01:50:16.889Z,100438.30
2018-09-17T01:50:59.134Z,100437.56
2018-09-17T01:51:37.328Z,100438.30
2018-09-17T01:52:12.492Z,100440.23
2018-09-17T01:52:47.658Z,100438.17
2018-09-17T01:53:23.787Z,100441.62
2018-09-17T01:54:01.551Z,100443.45
2018-09-17T01:54:36.794Z,100444.10
2018-09-17T01:55:11.974Z,100446.98
2018-09-17T01:55:49.067Z,100448.93
2018-09-17T01:56:27.868Z,100451.38
2018-09-17T01:57:03.196Z,100448.99
2018-09-17T01:57:38.398Z,100451.60
2018-09-17T01:58:13.574Z,100458.95
2018-09-17T01:58:52.711Z,100450.02
2018-09-17T01:59:30.354Z,100452.70
2018-09-17T02:00:06.822Z,100449.86
2018-09-17T02:00:42.007Z,100451.09
2018-09-17T02:01:21.740Z,100455.06
2018-09-17T02:02:02.226Z,100451.09
2018-09-17T02:02:39.092Z,100451.95
2018-09-17T02:03:14.254Z,100454.16
2018-09-17T02:03:56.605Z,100450.33
2018-09-17T02:04:35.909Z,100447.27
2018-09-17T02:05:14.283Z,100454.84
2018-09-17T02:05:49.603Z,100455.25
2018-09-17T02:06:30.007Z,100458.59
2018-09-17T02:07:09.257Z,100456.95
2018-09-17T02:07:45.678Z,100455.26
2018-09-17T02:08:31.192Z,100458.92
2018-09-17T02:09:08.807Z,100460.80
2018-09-17T02:09:45.219Z,100458.33
2018-09-17T02:10:20.751Z,100454.81
2018-09-17T02:11:02.920Z,100461.54
2018-09-17T02:11:38.793Z,100454.42
2018-09-17T02:12:14.486Z,100456.57
2018-09-17T02:12:51.236Z,100455.02
2018-09-17T02:13:29.051Z,100458.02
2018-09-17T02:14:04.625Z,100461.19
2018-09-17T02:14:40.383Z,100462.00
2018-09-17T02:15:15.636Z,100462.56
2018-09-17T02:15:52.385Z,100459.11
2018-09-17T02:16:30.318Z,100462.56
2018-09-17T02:17:06.369Z,100458.58
2018-09-17T02:17:41.639Z,100458.66
2018-09-17T02:18:17.500Z,100460.80
2018-09-17T02:18:55.909Z,100462.38
2018-09-17T02:19:33.003Z,100454.36
2018-09-17T02:20:08.255Z,100461.72
2018-09-17T02:20:43.423Z,100463.55
2018-09-17T02:21:21.411Z,100461.40
2018-09-17T02:21:58.582Z,100456.27
2018-09-17T02:22:34.645Z,100451.05
2018-09-17T02:23:09.814Z,100455.42
2018-09-17T02:23:44.937Z,100450.31
2018-09-17T02:24:24.238Z,100464.70
2018-09-17T02:25:01.556Z,100462.56
2018-09-17T02:25:36.726Z,100469.39
2018-09-17T02:26:12.065Z,100462.95
2018-09-17T02:26:48.708Z,100460.48
2018-09-17T02:27:25.763Z,100463.94
2018-09-17T02:28:01.201Z,100466.86
2018-09-17T02:28:36.418Z,100473.83
2018-09-17T02:29:11.860Z,100468.16
2018-09-17T02:29:49.475Z,100472.45
2018-09-17T02:30:25.482Z,100467.52
2018-09-17T02:31:01.025Z,100473.30
2018-09-17T02:31:36.410Z,100470.59
2018-09-17T02:32:11.693Z,100474.11
2018-09-17T02:32:49.247Z,100468.30
2018-09-17T02:33:29.577Z,100469.22
2018-09-17T02:34:05.272Z,100470.91
2018-09-17T02:34:40.465Z,100469.84
2018-09-17T02:35:15.813Z,100473.75
2018-09-17T02:35:53.462Z,100463.48
2018-09-17T02:36:32.554Z,100467.45
2018-09-17T02:37:08.240Z,100464.64
2018-09-17T02:37:43.504Z,100471.99
2018-09-17T02:38:20.690Z,100468.30
2018-09-17T02:38:56.208Z,100467.07
2018-09-17T02:39:31.394Z,100465.38
2018-09-17T02:40:18.408Z,100467.14
2018-09-17T02:40:59.422Z,100467.00
2018-09-17T02:41:36.674Z,100470.76
2018-09-17T02:42:12.095Z,100467.37
2018-09-17T02:42:50.311Z,100471.36
2018-09-17T02:43:28.076Z,100470.38
2018-09-17T02:44:03.288Z,100476.11
2018-09-17T02:44:44.845Z,100475.81
2018-09-17T02:45:21.938Z,100472.91
2018-09-17T02:45:58.002Z,100474.91
2018-09-17T02:46:34.655Z,100482.16
2018-09-17T02:47:09.839Z,100473.82
2018-09-17T02:47:45.034Z,100483.07
2018-09-17T02:48:22.247Z,100481.41
2018-09-17T02:48:57.857Z,100476.49
2018-09-17T02:49:33.009Z,100479.48
2018-09-17T02:50:08.198Z,100477.86
2018-09-17T02:50:43.380Z,100478.25
2018-09-17T02:51:19.070Z,100478.49
2018-09-17T02:51:54.246Z,100477.40
2018-09-17T02:52:29.470Z,100479.33
2018-09-17T02:53:04.651Z,100481.93
2018-09-17T02:53:39.908Z,100488.76
2018-09-17T02:54:15.239Z,100480.00
2018-09-17T02:54:50.638Z,100484.85
2018-09-17T02:55:26.056Z,100492.88
2018-09-17T02:56:01.208Z,100493.86
2018-09-17T02:56:36.398Z,100490.66
2018-09-17T02:57:11.566Z,100489.42
2018-09-17T02:57:46.317Z,100491.50
2018-09-17T02:58:21.953Z,100495.47
2018-09-17T02:58:57.561Z,100496.20
2018-09-17T02:59:32.751Z,100491.19
2018-09-17T03:00:09.481Z,100494.32
2018-09-17T03:00:44.774Z,100492.27
2018-09-17T03:01:20.422Z,100489.03
2018-09-17T03:01:55.913Z,100489.95
2018-09-17T03:02:30.834Z,100489.20
2018-09-17T03:03:06.548Z,100490.05
2018-09-17T03:03:41.775Z,100491.62
2018-09-17T03:04:17.381Z,100493.87
2018-09-17T03:04:52.637Z,100489.19
2018-09-17T03:05:27.821Z,100489.38
2018-09-17T03:06:03.002Z,100493.55
2018-09-17T03:06:38.153Z,100493.49
2018-09-17T03:07:13.397Z,100492.02
2018-09-17T03:07:48.665Z,100489.34
2018-09-17T03:08:24.103Z,100486.12
2018-09-17T03:08:59.255Z,100485.73
2018-09-17T03:09:34.418Z,100488.05
2018-09-17T03:10:09.613Z,100483.61
2018-09-17T03:10:44.758Z,100489.86
2018-09-17T03:11:20.618Z,100482.29
2018-09-17T03:11:55.867Z,100485.41
2018-09-17T03:12:31.147Z,100482.20
2018-09-17T03:13:06.463Z,100487.54
2018-09-17T03:13:41.659Z,100484.05
2018-09-17T03:14:17.126Z,100480.28
2018-09-17T03:14:52.450Z,100484.44
2018-09-17T03:15:38.884Z,100482.81
2018-09-17T03:16:14.041Z,100481.05
2018-09-17T03:17:00.387Z,100484.55
2018-09-17T03:17:35.568Z,100485.66
2018-09-17T03:18:10.740Z,100481.23
2018-09-17T03:18:56.632Z,100485.10
2018-09-17T03:19:32.163Z,100482.05
2018-09-17T03:20:07.671Z,100489.89
2018-09-17T03:20:42.861Z,100482.60
2018-09-17T03:21:19.526Z,100486.11
2018-09-17T03:21:54.882Z,100488.66
2018-09-17T03:22:30.065Z,100489.17
2018-09-17T03:23:05.230Z,100486.05
2018-09-17T03:23:40.418Z,100491.25
2018-09-17T03:24:16.018Z,100487.13
2018-09-17T03:24:51.305Z,100492.33
2018-09-17T03:25:26.667Z,100490.02
2018-09-17T03:26:01.908Z,100492.33
2018-09-17T03:26:37.083Z,100489.02
2018-09-17T03:27:12.576Z,100496.30
2018-09-17T03:27:48.183Z,100495.66
2018-09-17T03:28:24.212Z,100491.06
2018-09-17T03:28:59.375Z,100489.25
2018-09-17T03:29:34.651Z,100500.01
2018-09-17T03:30:09.838Z,100496.73
2018-09-17T03:30:44.552Z,100494.64
2018-09-17T03:31:20.334Z,100498.61
2018-09-17T03:31:55.781Z,100497.25
2018-09-17T03:32:31.338Z,100496.04
2018-09-17T03:33:06.868Z,100493.02
2018-09-17T03:33:42.010Z,100493.52
2018-09-17T03:34:17.253Z,100492.17
2018-09-17T03:34:52.588Z,100493.77
2018-09-17T03:35:27.878Z,100497.34
2018-09-17T03:36:03.050Z,100499.66
2018-09-17T03:36:38.219Z,100493.41
2018-09-17T03:37:13.453Z,100495.98
2018-09-17T03:37:48.911Z,100491.77
2018-09-17T03:38:37.795Z,100494.89
2018-09-17T03:39:12.991Z,100489.34
2018-09-17T03:39:48.379Z,100489.34
2018-09-17T03:40:24.280Z,100495.67
2018-09-17T03:40:59.574Z,100492.08
2018-09-17T03:41:35.066Z,100496.59
2018-09-17T03:42:10.294Z,100492.69
2018-09-17T03:42:45.488Z,100484.70
2018-09-17T03:43:21.246Z,100493.50
2018-09-17T03:43:56.807Z,100489.92
2018-09-17T03:44:32.020Z,100488.98
2018-09-17T03:45:07.243Z,100492.80
2018-09-17T03:45:42.604Z,100496.23
2018-09-17T03:46:18.308Z,100494.03
2018-09-17T03:46:53.739Z,100490.06
2018-09-17T03:47:28.979Z,100493.86
2018-09-17T03:48:04.210Z,100492.56
2018-09-17T03:48:40.297Z,100490.52
2018-09-17T03:49:15.470Z,100492.98
2018-09-17T03:49:50.855Z,100486.94
2018-09-17T03:50:26.167Z,100473.64
2018-09-17T03:51:01.915Z,100486.30
2018-09-17T03:51:37.123Z,100487.87
2018-09-17T03:52:12.310Z,100488.63
2018-09-17T03:52:47.499Z,100486.48
2018-09-17T03:53:23.469Z,100488.08
2018-09-17T03:53:58.743Z,100488.63
2018-09-17T03:54:33.938Z,100490.91
2018-09-17T03:55:09.132Z,100488.01
2018-09-17T03:55:44.465Z,100487.36
2018-09-17T03:56:19.888Z,100488.83
2018-09-17T03:56:55.244Z,100485.05
2018-09-17T03:57:30.452Z,100486.68
2018-09-17T03:58:05.866Z,100483.63
2018-09-17T03:58:41.064Z,100482.26
2018-09-17T03:59:16.248Z,100483.33
2018-09-17T03:59:51.658Z,100483.09
2018-09-17T04:00:27.527Z,100480.27
2018-09-17T04:01:03.476Z,100474.25
2018-09-17T04:01:38.666Z,100482.45
2018-09-17T04:02:14.011Z,100487.84
2018-09-17T04:02:49.439Z,100481.80
2018-09-17T04:03:24.970Z,100480.20
2018-09-17T04:04:00.173Z,100482.52
2018-09-17T04:04:35.403Z,100475.91
2018-09-17T04:05:10.629Z,100486.02
2018-09-17T04:05:45.935Z,100491.09
2018-09-17T04:06:21.316Z,100479.69
2018-09-17T04:06:56.727Z,100479.49
2018-09-17T04:07:31.918Z,100490.35
2018-09-17T04:08:07.111Z,100485.31
2018-09-17T04:08:42.439Z,100482.71
2018-09-17T04:09:17.930Z,100484.86
2018-09-17T04:09:53.304Z,100482.48
2018-09-17T04:10:28.627Z,100485.02
2018-09-17T04:11:03.789Z,100482.42
2018-09-17T04:11:38.966Z,100482.42
2018-09-17T04:12:15.192Z,100489.77
2018-09-17T04:12:50.640Z,100478.26
2018-09-17T04:13:26.377Z,100482.94
2018-09-17T04:14:01.557Z,100477.80
2018-09-17T04:14:36.745Z,100483.81
2018-09-17T04:15:11.970Z,100481.80
2018-09-17T04:15:48.378Z,100484.17
2018-09-17T04:16:24.035Z,100484.17
2018-09-17T04:16:59.246Z,100480.73
2018-09-17T04:17:34.526Z,100479.27
2018-09-17T04:18:09.710Z,100485.18
2018-09-17T04:18:44.928Z,100487.95
2018-09-17T04:19:20.555Z,100483.27
2018-09-17T04:19:55.813Z,100489.25
2018-09-17T04:20:31.112Z,100486.32
2018-09-17T04:21:07.040Z,100480.34
2018-09-17T04:21:42.225Z,100486.06
2018-09-17T04:22:17.467Z,100494.73
2018-09-17T04:22:53.031Z,100489.41
2018-09-17T04:23:35.183Z,100490.68
2018-09-17T04:24:10.358Z,100486.78
2018-09-17T04:24:45.532Z,100491.72
2018-09-17T04:25:21.014Z,100489.61
2018-09-17T04:25:56.398Z,100490.25
2018-09-17T04:26:31.113Z,100488.66
2018-09-17T04:27:05.874Z,100489.58
2018-09-17T04:27:40.585Z,100485.80
2018-09-17T04:28:15.334Z,100484.11
2018-09-17T04:28:50.754Z,100483.81
2018-09-17T04:29:26.672Z,100488.30
2018-09-17T04:30:01.952Z,100483.62
2018-09-17T04:30:37.246Z,100484.40
2018-09-17T04:31:12.450Z,100481.67
2018-09-17T04:31:48.206Z,100484.72
2018-09-17T04:32:24.243Z,100491.75
2018-09-17T04:32:59.448Z,100484.63
2018-09-17T04:33:37.002Z,100485.92
2018-09-17T04:34:12.340Z,100493.95
2018-09-17T04:34:47.767Z,100484.53
2018-09-17T04:35:23.499Z,100485.24
2018-09-17T04:35:58.673Z,100493.66
2018-09-17T04:36:33.482Z,100492.20
2018-09-17T04:37:08.692Z,100497.79
2018-09-17T04:37:44.289Z,100496.88
2018-09-17T04:38:19.763Z,100494.41
2018-09-17T04:38:55.465Z,100494.41
2018-09-17T04:39:30.707Z,100495.42
2018-09-17T04:40:06.391Z,100499.19
2018-09-17T04:40:41.562Z,100504.39
2018-09-17T04:41:16.825Z,100504.39
2018-09-17T04:41:52.296Z,100501.73
2018-09-17T04:42:27.567Z,100507.39
2018-09-17T04:43:02.757Z,100508.75
2018-09-17T04:43:37.986Z,100502.99
2018-09-17T04:44:13.161Z,100506.73
2018-09-17T04:44:48.714Z,100506.05
2018-09-17T04:45:24.322Z,100506.38
2018-09-17T04:45:59.905Z,100510.28
2018-09-17T04:46:34.662Z,100512.59
2018-09-17T04:47:09.822Z,100506.61
2018-09-17T04:47:45.024Z,100510.28
2018-09-17T04:48:20.466Z,100508.59
2018-09-17T04:48:56.042Z,100515.09
2018-09-17T04:49:31.215Z,100510.05
2018-09-17T04:50:06.643Z,100520.23
2018-09-17T04:50:41.833Z,100515.15
2018-09-17T04:51:17.099Z,100518.59
2018-09-17T04:51:52.554Z,100515.84
2018-09-17T04:52:27.739Z,100516.39
2018-09-17T04:53:02.898Z,100523.77
2018-09-17T04:53:38.099Z,100522.09
2018-09-17T04:54:13.298Z,100517.34
2018-09-17T04:54:49.585Z,100526.95
2018-09-17T04:55:24.941Z,100518.37
2018-09-17T04:56:00.128Z,100515.84
2018-09-17T04:56:35.309Z,100520.80
2018-09-17T04:57:10.519Z,100521.72
2018-09-17T04:57:45.881Z,100522.63
2018-09-17T04:58:21.549Z,100523.47
2018-09-17T04:58:56.946Z,100517.75
2018-09-17T04:59:32.140Z,100520.35
2018-09-17T05:00:07.364Z,100520.35
2018-09-17T05:00:42.585Z,100523.34
2018-09-17T05:01:18.314Z,100523.28
2018-09-17T05:01:53.640Z,100514.18
2018-09-17T05:02:28.822Z,100517.69
2018-09-17T05:03:04.022Z,100515.09
2018-09-17T05:03:39.273Z,100516.84
2018-09-17T05:04:14.505Z,100517.58
2018-09-17T05:04:50.039Z,100515.95
2018-09-17T05:05:25.801Z,100521.67
2018-09-17T05:06:01.127Z,100519.07
2018-09-17T05:06:36.318Z,100517.98
2018-09-17T05:07:11.522Z,100521.63
2018-09-17T05:07:47.026Z,100519.57
2018-09-17T05:08:22.508Z,100521.52
2018-09-17T05:08:57.743Z,100524.33
2018-09-17T05:09:32.981Z,100526.86
2018-09-17T05:10:08.566Z,100525.63
2018-09-17T05:10:43.755Z,100529.02
2018-09-17T05:11:19.150Z,100531.91
2018-09-17T05:11:53.852Z,100527.62
2018-09-17T05:12:29.023Z,100527.77
2018-09-17T05:13:04.249Z,100526.77
2018-09-17T05:13:39.625Z,100529.03
2018-09-17T05:14:14.797Z,100532.63
2018-09-17T05:14:50.289Z,100537.05
2018-09-17T05:15:25.923Z,100530.61
2018-09-17T05:16:01.103Z,100535.41
2018-09-17T05:16:36.282Z,100538.02
2018-09-17T05:17:11.555Z,100536.02
2018-09-17T05:17:47.102Z,100538.45
2018-09-17T05:18:22.576Z,100542.13
2018-09-17T05:18:58.063Z,100546.94
2018-09-17T05:19:33.254Z,100541.22
2018-09-17T05:20:08.583Z,100544.22
2018-09-17T05:20:43.903Z,100541.46
2018-09-17T05:21:19.639Z,100546.87
2018-09-17T05:21:55.131Z,100536.98
2018-09-17T05:22:30.464Z,100546.99
2018-09-17T05:23:05.655Z,100539.31
2018-09-17T05:23:41.123Z,100541.46
2018-09-17T05:24:16.357Z,100540.03
2018-09-17T05:24:51.685Z,100546.77
2018-09-17T05:25:27.355Z,100547.71
2018-09-17T05:26:02.593Z,100546.14
2018-09-17T05:26:37.763Z,100546.08
2018-09-17T05:27:12.993Z,100548.68
2018-09-17T05:27:48.371Z,100548.23
2018-09-17T05:28:23.730Z,100543.55
2018-09-17T05:28:59.135Z,100550.77
2018-09-17T05:29:34.344Z,100552.06
2018-09-17T05:30:09.769Z,100549.77
2018-09-17T05:30:44.978Z,100552.18
2018-09-17T05:31:20.700Z,100548.34
2018-09-17T05:31:56.395Z,100547.50
2018-09-17T05:32:31.748Z,100548.28
2018-09-17T05:33:07.083Z,100536.64
2018-09-17T05:33:42.394Z,100537.22
2018-09-17T05:34:17.885Z,100535.75
2018-09-17T05:34:53.774Z,100538.80
2018-09-17T05:35:29.848Z,100539.25
2018-09-17T05:36:05.463Z,100535.30
2018-09-17T05:36:40.662Z,100534.23
2018-09-17T05:37:16.045Z,100531.63
2018-09-17T05:37:51.907Z,100529.17
2018-09-17T05:38:27.446Z,100533.31
2018-09-17T05:39:03.150Z,100526.52
2018-09-17T05:39:38.359Z,100523.81
2018-09-17T05:40:13.570Z,100529.98
2018-09-17T05:40:48.892Z,100527.33
2018-09-17T05:41:24.626Z,100526.41
2018-09-17T05:41:59.805Z,100528.17
2018-09-17T05:42:34.990Z,100531.09
2018-09-17T05:43:10.250Z,100526.72
2018-09-17T05:43:45.673Z,100531.77
2018-09-17T05:44:20.951Z,100535.33
2018-09-17T05:44:56.518Z,100534.61
2018-09-17T05:45:31.791Z,100537.88
2018-09-17T05:46:07.001Z,100533.20
2018-09-17T05:46:42.224Z,100534.50
2018-09-17T05:47:18.175Z,100539.76
2018-09-17T05:47:53.802Z,100541.84
2018-09-17T05:48:29.049Z,100534.44
2018-09-17T05:49:04.330Z,100543.38
2018-09-17T05:49:39.902Z,100542.41
2018-09-17T05:50:15.132Z,100540.72
2018-09-17T05:50:50.457Z,100547.73
2018-09-17T05:51:26.028Z,100541.23
2018-09-17T05:52:01.241Z,100548.73
2018-09-17T05:52:36.462Z,100553.09
2018-09-17T05:53:11.678Z,100550.16
2018-09-17T05:53:47.097Z,100554.45
2018-09-17T05:54:22.717Z,100553.48
2018-09-17T05:54:57.990Z,100552.36
2018-09-17T05:55:33.205Z,100547.94
2018-09-17T05:56:08.517Z,100551.51
2018-09-17T05:56:43.724Z,100553.33
2018-09-17T05:57:19.342Z,100555.63
2018-09-17T05:57:54.868Z,100555.69
2018-09-17T05:58:30.065Z,100551.63
2018-09-17T05:59:05.681Z,100550.66
2018-09-17T05:59:41.080Z,100547.67
2018-09-17T06:00:16.406Z,100552.23
2018-09-17T06:00:52.107Z,100549.17
2018-09-17T06:01:27.497Z,100548.78
2018-09-17T06:02:02.665Z,100547.61
2018-09-17T06:02:37.878Z,100548.45
2018-09-17T06:03:13.058Z,100550.33
2018-09-17T06:03:48.480Z,100550.66
2018-09-17T06:04:23.916Z,100545.34
2018-09-17T06:04:59.145Z,100543.71
2018-09-17T06:05:35.938Z,100548.23
2018-09-17T06:06:12.105Z,100549.99
2018-09-17T06:06:47.889Z,100545.18
2018-09-17T06:07:24.410Z,100549.92
2018-09-17T06:07:59.693Z,100543.77
2018-09-17T06:08:34.906Z,100547.03
2018-09-17T06:09:12.455Z,100548.73
2018-09-17T06:09:47.936Z,100547.55
2018-09-17T06:10:23.502Z,100541.14
2018-09-17T06:10:58.700Z,100543.62
2018-09-17T06:11:34.098Z,100543.42
2018-09-17T06:12:09.338Z,100548.42
2018-09-17T06:12:46.276Z,100550.52
2018-09-17T06:13:21.984Z,100548.69
2018-09-17T06:13:57.543Z,100544.17
2018-09-17T06:14:32.820Z,100548.80
2018-09-17T06:15:08.498Z,100549.41
2018-09-17T06:15:43.706Z,100545.51
2018-09-17T06:16:19.229Z,100550.62
2018-09-17T06:16:54.617Z,100548.77
2018-09-17T06:17:29.768Z,100545.70
2018-09-17T06:18:05.265Z,100550.09
2018-09-17T06:18:40.851Z,100549.25
2018-09-17T06:19:16.061Z,100547.42
2018-09-17T06:19:51.787Z,100547.94
2018-09-17T06:20:27.440Z,100550.41
2018-09-17T06:21:02.864Z,100550.13
2018-09-17T06:21:38.034Z,100553.14
2018-09-17T06:22:13.299Z,100552.52
2018-09-17T06:22:48.574Z,100550.77
2018-09-17T06:23:24.136Z,100548.81
2018-09-17T06:23:59.601Z,100546.52
2018-09-17T06:24:34.804Z,100549.18
2018-09-17T06:25:09.989Z,100552.56
2018-09-17T06:25:45.266Z,100548.20
2018-09-17T06:26:20.810Z,100545.14
2018-09-17T06:26:56.493Z,100551.58
2018-09-17T06:27:31.719Z,100550.58
2018-09-17T06:28:06.934Z,100550.13
2018-09-17T06:28:42.208Z,100545.30
2018-09-17T06:29:17.584Z,100547.97
2018-09-17T06:29:53.066Z,100553.05
2018-09-17T06:30:28.326Z,100551.22
2018-09-17T06:31:03.581Z,100555.28
2018-09-17T06:31:38.800Z,100552.05
2018-09-17T06:32:14.169Z,100551.01
2018-09-17T06:32:49.662Z,100555.84
2018-09-17T06:33:25.066Z,100558.09
2018-09-17T06:34:00.222Z,100555.55
2018-09-17T06:34:35.418Z,100551.65
2018-09-17T06:35:10.612Z,100555.48
2018-09-17T06:35:45.889Z,100556.55
2018-09-17T06:36:21.484Z,100551.27
2018-09-17T06:37:32.434Z,100558.39
2018-09-17T06:38:08.222Z,100555.11
2018-09-17T06:38:43.423Z,100552.13
2018-09-17T06:39:18.715Z,100552.13
2018-09-17T06:39:54.540Z,100555.26
2018-09-17T06:40:29.738Z,100554.34
2018-09-17T06:41:04.968Z,100555.33
2018-09-17T06:41:40.173Z,100553.36
2018-09-17T06:42:15.574Z,100555.11
2018-09-17T06:42:51.023Z,100550.58
2018-09-17T06:43:26.418Z,100547.83
2018-09-17T06:44:01.612Z,100551.73
2018-09-17T06:44:37.214Z,100553.58
2018-09-17T06:45:12.419Z,100552.34
2018-09-17T06:45:47.675Z,100553.64
2018-09-17T06:46:23.164Z,100548.89
2018-09-17T06:46:58.690Z,100547.12
2018-09-17T06:47:33.410Z,100553.64
2018-09-17T06:48:08.615Z,100551.28
2018-09-17T06:48:43.854Z,100545.05